Point Roberts, Washington
Current Conditions -  °F | °C
As of 2:00 AM on Saturday 22 Nov 2014 (Local Time) from CYVR Reporting Station
Broken Clouds Broken Clouds  
Wind Chill: 41°   Ceiling: 6100
Heat Index: 46°   Visibility: 15mi
Dew Point: 41°   Wind: 13mph
Humidity: 81%   Direction: 270°W
Pressure: 29.5"   Gusts: NA
Location:  48.99°N, 123.08°W
Report Text: CYVR 221000Z 27011KT 15SM FEW037 BKN061 BKN080 08/05 A2950 RMK NS1SC5AC1 SLP990
Loading
Personal Weather Stations






























Interactive Weather Map New forecast layout! Learn more

10-Day Weather Forecast

Advertisements
Track Severe Weather on mobile